createdAt,value
2022-11-23T00:01:37.956Z,5.35
2022-11-23T00:04:10.631Z,7.45
2022-11-23T00:06:44.432Z,7.35
2022-11-23T00:09:25.970Z,7.35
2022-11-23T00:15:43.830Z,6.18
2022-11-23T00:18:10.652Z,5.10
2022-11-23T00:20:39.682Z,5.20
2022-11-23T00:23:06.321Z,4.70
2022-11-23T00:25:34.206Z,5.57
2022-11-23T00:28:00.761Z,5.43
2022-11-23T00:30:28.924Z,4.85
2022-11-23T00:32:56.269Z,4.75
2022-11-23T00:35:23.777Z,4.95
2022-11-23T00:37:50.316Z,4.75
2022-11-23T00:40:17.073Z,4.40
2022-11-23T00:42:43.566Z,5.03
2022-11-23T00:45:10.615Z,4.15
2022-11-23T00:47:37.367Z,3.80
2022-11-23T00:50:04.173Z,4.47
2022-11-23T00:52:30.894Z,4.95
2022-11-23T00:54:57.548Z,4.70
2022-11-23T00:57:24.184Z,4.85
2022-11-23T00:59:50.980Z,4.70
2022-11-23T01:02:17.491Z,4.10
2022-11-23T01:04:44.022Z,4.55
2022-11-23T01:07:10.755Z,4.20
2022-11-23T01:09:37.441Z,4.53
2022-11-23T01:12:04.095Z,4.07
2022-11-23T01:14:30.719Z,3.75
2022-11-23T01:16:57.285Z,5.25
2022-11-23T01:19:24.144Z,4.22
2022-11-23T01:21:51.109Z,4.10
2022-11-23T01:24:22.611Z,3.95
2022-11-23T01:26:54.253Z,3.85
2022-11-23T01:29:24.439Z,4.88
2022-11-23T01:31:51.077Z,4.75
2022-11-23T01:34:17.850Z,4.78
2022-11-23T01:36:45.249Z,4.43
2022-11-23T01:39:12.180Z,4.75
2022-11-23T01:41:41.257Z,4.80
2022-11-23T01:44:31.093Z,4.60
2022-11-23T01:46:59.894Z,4.25
2022-11-23T01:49:31.439Z,4.20
2022-11-23T01:52:02.252Z,4.22
2022-11-23T01:54:36.571Z,4.20
2022-11-23T01:57:17.656Z,4.07
2022-11-23T01:59:46.398Z,5.28
2022-11-23T02:02:14.894Z,5.15
2022-11-23T02:04:45.898Z,4.43
2022-11-23T02:07:14.737Z,4.55
2022-11-23T02:09:42.629Z,4.57
2022-11-23T02:12:13.323Z,4.63
2022-11-23T02:14:41.855Z,4.32
2022-11-23T02:17:08.838Z,4.22
2022-11-23T02:19:47.680Z,4.63
2022-11-23T02:22:24.006Z,4.53
2022-11-23T02:24:54.056Z,4.88
2022-11-23T02:27:21.282Z,4.32
2022-11-23T02:29:48.571Z,4.18
2022-11-23T02:32:24.689Z,4.70
2022-11-23T02:34:51.452Z,4.30
2022-11-23T02:37:18.689Z,3.90
2022-11-23T02:39:49.425Z,4.43
2022-11-23T02:42:15.959Z,4.95
2022-11-23T02:45:00.334Z,4.10
2022-11-23T02:47:26.998Z,3.60
2022-11-23T02:49:53.613Z,3.53
2022-11-23T02:52:20.874Z,3.78
2022-11-23T02:54:47.509Z,4.30
2022-11-23T02:57:14.445Z,3.72
2022-11-23T02:59:40.980Z,3.75
2022-11-23T03:02:09.749Z,4.50
2022-11-23T03:04:36.410Z,4.45
2022-11-23T03:07:02.959Z,4.55
2022-11-23T03:09:29.815Z,4.35
2022-11-23T03:11:56.572Z,4.82
2022-11-23T03:14:23.181Z,4.22
2022-11-23T03:16:49.742Z,3.95
2022-11-23T03:19:16.317Z,4.32
2022-11-23T03:21:42.908Z,3.85
2022-11-23T03:24:09.527Z,4.20
2022-11-23T03:26:36.279Z,4.78
2022-11-23T03:29:02.904Z,4.28
2022-11-23T03:31:29.435Z,4.35
2022-11-23T03:33:56.038Z,4.55
2022-11-23T03:36:22.867Z,4.75
2022-11-23T03:38:49.522Z,4.18
2022-11-23T03:41:16.122Z,3.67
2022-11-23T03:43:42.771Z,4.15
2022-11-23T03:46:09.439Z,4.10
2022-11-23T03:48:35.990Z,4.25
2022-11-23T03:51:02.597Z,3.60
2022-11-23T03:53:29.245Z,3.83
2022-11-23T03:55:57.556Z,4.60
2022-11-23T03:58:24.185Z,4.38
2022-11-23T04:00:54.635Z,4.63
2022-11-23T04:03:21.263Z,4.38
2022-11-23T04:05:47.875Z,4.18
2022-11-23T04:08:14.446Z,4.20
2022-11-23T04:10:41.049Z,4.63
2022-11-23T04:13:08.837Z,4.70
2022-11-23T04:15:38.581Z,4.22
2022-11-23T04:18:05.318Z,3.90
2022-11-23T04:20:31.984Z,5.00
2022-11-23T04:22:58.587Z,3.75
2022-11-23T04:25:25.191Z,4.18
2022-11-23T04:27:51.768Z,4.15
2022-11-23T04:30:18.473Z,4.25
2022-11-23T04:32:45.797Z,4.63
2022-11-23T04:35:12.746Z,3.90
2022-11-23T04:37:39.638Z,4.03
2022-11-23T04:40:06.919Z,4.00
2022-11-23T04:42:33.630Z,4.00
2022-11-23T04:45:00.174Z,4.45
2022-11-23T04:47:26.796Z,4.18
2022-11-23T04:49:53.312Z,4.00
2022-11-23T04:52:19.930Z,4.63
2022-11-23T04:54:46.573Z,4.05
2022-11-23T04:57:13.174Z,3.83
2022-11-23T04:59:42.368Z,5.20
2022-11-23T05:02:10.253Z,4.20
2022-11-23T05:04:36.956Z,4.43
2022-11-23T05:07:03.838Z,4.03
2022-11-23T05:09:31.189Z,4.35
2022-11-23T05:11:58.112Z,4.10
2022-11-23T05:14:24.749Z,3.83
2022-11-23T05:16:51.470Z,3.83
2022-11-23T05:19:18.265Z,3.67
2022-11-23T05:21:44.934Z,3.78
2022-11-23T05:24:11.542Z,4.20
2022-11-23T05:26:38.126Z,4.07
2022-11-23T05:29:07.302Z,4.13
2022-11-23T05:31:34.061Z,3.83
2022-11-23T05:34:00.642Z,3.47
2022-11-23T05:36:27.257Z,3.95
2022-11-23T05:38:53.872Z,4.45
2022-11-23T05:41:20.467Z,3.40
2022-11-23T05:43:47.075Z,3.35
2022-11-23T05:46:13.670Z,3.17
2022-11-23T05:48:40.246Z,3.47
2022-11-23T05:51:07.049Z,4.00
2022-11-23T05:53:33.751Z,3.75
2022-11-23T05:56:01.397Z,4.68
2022-11-23T05:58:28.826Z,3.38
2022-11-23T06:01:04.661Z,4.28
2022-11-23T06:03:31.352Z,3.90
2022-11-23T06:06:00.292Z,4.05
2022-11-23T06:08:27.151Z,3.85
2022-11-23T06:10:53.875Z,4.10
2022-11-23T06:13:23.750Z,3.38
2022-11-23T06:15:50.482Z,4.65
2022-11-23T06:18:17.225Z,4.18
2022-11-23T06:20:44.075Z,3.78
2022-11-23T06:23:10.728Z,4.55
2022-11-23T06:25:39.287Z,3.80
2022-11-23T06:28:07.607Z,4.15
2022-11-23T06:30:37.519Z,3.65
2022-11-23T06:33:08.072Z,4.05
2022-11-23T06:35:35.203Z,3.78
2022-11-23T06:38:02.118Z,4.25
2022-11-23T06:40:29.141Z,3.88
2022-11-23T06:43:01.772Z,3.72
2022-11-23T06:45:28.611Z,3.83
2022-11-23T06:47:56.841Z,4.20
2022-11-23T06:50:23.912Z,4.63
2022-11-23T06:52:55.354Z,4.15
2022-11-23T06:55:22.386Z,4.80
2022-11-23T06:57:49.317Z,4.38
2022-11-23T07:00:16.649Z,5.18
2022-11-23T07:02:43.505Z,4.47
2022-11-23T07:05:10.341Z,4.03
2022-11-23T07:07:37.320Z,3.88
2022-11-23T07:10:07.182Z,4.07
2022-11-23T07:12:34.444Z,4.28
2022-11-23T07:15:01.264Z,4.63
2022-11-23T07:17:28.107Z,3.63
2022-11-23T07:19:55.042Z,4.47
2022-11-23T07:22:25.003Z,4.75
2022-11-23T07:24:51.762Z,4.20
2022-11-23T07:27:18.580Z,4.65
2022-11-23T07:29:45.249Z,4.60
2022-11-23T07:32:14.591Z,3.78
2022-11-23T07:34:41.264Z,4.13
2022-11-23T07:37:08.134Z,4.43
2022-11-23T07:39:56.419Z,4.00
2022-11-23T07:42:33.408Z,3.70
2022-11-23T07:45:01.956Z,4.82
2022-11-23T07:47:29.001Z,4.20
2022-11-23T07:50:09.191Z,3.97
2022-11-23T07:52:42.225Z,4.38
2022-11-23T07:55:09.550Z,3.63
2022-11-23T07:57:36.295Z,4.28
2022-11-23T08:00:04.199Z,4.15
2022-11-23T08:02:31.008Z,4.03
2022-11-23T08:05:02.995Z,4.18
2022-11-23T08:07:29.984Z,5.60
2022-11-23T08:09:56.972Z,4.25
2022-11-23T08:12:23.842Z,3.97
2022-11-23T08:14:50.622Z,3.95
2022-11-23T08:17:17.470Z,3.88
2022-11-23T08:19:46.515Z,4.40
2022-11-23T08:22:15.741Z,3.95
2022-11-23T08:24:42.881Z,3.72
2022-11-23T08:27:09.529Z,4.22
2022-11-23T08:29:36.372Z,3.75
2022-11-23T08:32:03.320Z,4.68
2022-11-23T08:34:30.398Z,3.90
2022-11-23T08:36:57.592Z,4.18
2022-11-23T08:39:24.513Z,3.63
2022-11-23T08:41:54.163Z,3.58
2022-11-23T08:44:20.880Z,3.08
2022-11-23T08:46:47.934Z,4.18
2022-11-23T08:49:14.550Z,3.75
2022-11-23T08:51:45.648Z,4.32
2022-11-23T08:54:15.372Z,3.88
2022-11-23T08:56:42.264Z,4.10
2022-11-23T08:59:09.422Z,4.65
2022-11-23T09:01:36.224Z,3.60
2022-11-23T09:04:05.837Z,3.80
2022-11-23T09:06:35.848Z,3.63
2022-11-23T09:09:07.943Z,4.57
2022-11-23T09:11:34.903Z,3.97
2022-11-23T09:14:05.732Z,3.40
2022-11-23T09:16:35.037Z,3.50
2022-11-23T09:19:02.630Z,4.57
2022-11-23T09:21:33.390Z,3.70
2022-11-23T09:26:32.061Z,3.67
2022-11-23T09:28:58.890Z,3.45
2022-11-23T09:31:29.010Z,3.95
2022-11-23T09:33:55.925Z,4.38
2022-11-23T09:36:25.500Z,3.53
2022-11-23T09:38:57.670Z,4.15
2022-11-23T09:41:35.891Z,4.40
2022-11-23T09:44:13.199Z,4.03
2022-11-23T09:47:07.806Z,4.53
2022-11-23T09:49:57.813Z,4.88
2022-11-23T09:52:26.708Z,4.57
2022-11-23T09:54:58.854Z,5.38
2022-11-23T09:57:34.337Z,3.90
2022-11-23T10:00:10.178Z,4.13
2022-11-23T10:02:44.568Z,4.10
2022-11-23T10:05:18.072Z,3.67
2022-11-23T10:08:22.920Z,4.00
2022-11-23T10:11:04.686Z,4.38
2022-11-23T10:13:40.112Z,4.55
2022-11-23T10:16:34.111Z,5.15
2022-11-23T10:19:17.486Z,4.18
2022-11-23T10:21:52.930Z,3.72
2022-11-23T10:24:25.906Z,4.97
2022-11-23T10:26:52.609Z,4.13
2022-11-23T10:29:25.648Z,3.80
2022-11-23T10:31:57.004Z,4.18
2022-11-23T10:34:44.318Z,4.22
2022-11-23T10:37:12.526Z,4.65
2022-11-23T10:39:39.483Z,3.65
2022-11-23T10:42:23.204Z,4.05
2022-11-23T10:45:04.700Z,3.97
2022-11-23T10:47:38.859Z,3.55
2022-11-23T10:50:20.672Z,4.68
2022-11-23T10:52:56.032Z,4.50
2022-11-23T10:55:27.451Z,3.88
2022-11-23T10:57:55.346Z,4.63
2022-11-23T11:00:30.934Z,4.72
2022-11-23T11:03:02.454Z,4.45
2022-11-23T11:08:32.586Z,4.65
2022-11-23T11:11:21.124Z,3.30
2022-11-23T11:13:50.495Z,3.72
2022-11-23T11:16:33.911Z,3.97
2022-11-23T11:19:26.258Z,4.47
2022-11-23T11:22:01.328Z,3.47
2022-11-23T11:24:33.890Z,3.22
2022-11-23T11:27:12.888Z,4.00
2022-11-23T11:29:44.793Z,3.30
2022-11-23T11:32:19.930Z,3.90
2022-11-23T11:34:57.062Z,4.57
2022-11-23T11:37:37.055Z,4.35
2022-11-23T11:40:18.851Z,3.77
2022-11-23T11:43:00.779Z,4.80
2022-11-23T11:45:34.355Z,3.92
2022-11-23T11:48:14.413Z,4.32
2022-11-23T11:50:57.297Z,4.47
2022-11-23T11:53:36.426Z,3.08
2022-11-23T11:56:32.635Z,2.53
2022-11-23T11:59:43.062Z,2.95
2022-11-23T12:05:21.476Z,3.25
2022-11-23T12:08:13.166Z,2.50
2022-11-23T12:10:59.707Z,3.20
2022-11-23T12:13:38.963Z,2.53
2022-11-23T12:16:31.202Z,2.67
2022-11-23T12:19:35.284Z,3.25
2022-11-23T12:22:29.163Z,2.80
2022-11-23T12:25:25.517Z,3.22
2022-11-23T12:28:19.660Z,2.80
2022-11-23T12:31:09.879Z,3.17
2022-11-23T12:34:14.837Z,3.28
2022-11-23T12:36:51.417Z,2.53
2022-11-23T12:39:37.039Z,3.63
2022-11-23T12:42:50.758Z,2.50
2022-11-23T12:45:44.416Z,3.67
2022-11-23T12:48:15.830Z,3.15
2022-11-23T12:51:10.573Z,3.10
2022-11-23T12:54:08.810Z,2.95
2022-11-23T12:57:16.428Z,3.97
2022-11-23T13:00:02.497Z,2.83
2022-11-23T13:02:54.398Z,2.90
2022-11-23T13:05:30.342Z,3.53
2022-11-23T13:08:48.913Z,2.92
2022-11-23T13:11:38.516Z,2.92
2022-11-23T13:15:00.029Z,2.92
2022-11-23T13:21:57.951Z,3.33
2022-11-23T13:29:44.094Z,3.15
2022-11-23T13:33:13.889Z,2.35
2022-11-23T13:40:08.615Z,2.63
2022-11-23T13:43:42.035Z,2.42
2022-11-23T13:46:40.071Z,2.53
2022-11-23T13:49:36.298Z,2.38
2022-11-23T13:52:29.007Z,2.90
2022-11-23T14:00:39.729Z,2.88
2022-11-23T14:03:49.272Z,2.10
2022-11-23T14:06:25.190Z,2.50
2022-11-23T14:09:04.313Z,2.65
2022-11-23T14:11:54.753Z,2.20
2022-11-23T14:14:26.303Z,2.17
2022-11-23T14:17:09.461Z,2.72
2022-11-23T14:20:14.021Z,2.65
2022-11-23T14:22:53.917Z,2.50
2022-11-23T14:25:26.210Z,2.90
2022-11-23T14:28:26.897Z,2.50
2022-11-23T14:33:53.514Z,3.03
2022-11-23T14:36:42.190Z,3.10
2022-11-23T14:39:33.101Z,2.65
2022-11-23T14:44:35.573Z,3.42
2022-11-23T14:47:08.846Z,3.15
2022-11-23T14:49:36.197Z,2.92
2022-11-23T14:52:04.913Z,2.90
2022-11-23T14:54:32.378Z,3.35
2022-11-23T14:57:02.800Z,2.63
2022-11-23T14:59:40.683Z,3.05
2022-11-23T15:02:16.415Z,3.30
2022-11-23T15:05:07.536Z,3.70
2022-11-23T15:07:47.684Z,3.42
2022-11-23T15:10:37.473Z,3.30
2022-11-23T15:13:17.830Z,3.30
2022-11-23T15:15:45.657Z,3.70
2022-11-23T15:18:12.125Z,2.78
2022-11-23T15:20:44.647Z,2.53
2022-11-23T15:23:21.407Z,2.60
2022-11-23T15:25:55.356Z,3.28
2022-11-23T15:28:34.194Z,2.70
2022-11-23T15:31:00.654Z,2.80
2022-11-23T15:33:27.889Z,3.58
2022-11-23T15:35:54.812Z,3.63
2022-11-23T15:38:23.843Z,3.65
2022-11-23T15:40:51.466Z,2.95
2022-11-23T15:43:19.850Z,3.15
2022-11-23T15:45:46.332Z,3.55
2022-11-23T15:48:36.940Z,3.50
2022-11-23T15:51:06.197Z,3.80
2022-11-23T15:53:43.673Z,3.25
2022-11-23T15:56:21.217Z,3.60
2022-11-23T15:58:49.627Z,4.32
2022-11-23T16:01:17.020Z,3.55
2022-11-23T16:03:53.604Z,3.95
2022-11-23T16:06:24.597Z,4.35
2022-11-23T16:08:51.486Z,4.25
2022-11-23T16:11:36.385Z,4.22
2022-11-23T16:14:18.652Z,4.55
2022-11-23T16:16:48.305Z,4.97
2022-11-23T16:19:28.827Z,5.30
2022-11-23T16:22:02.637Z,5.93
2022-11-23T16:24:31.932Z,5.47
2022-11-23T16:26:59.317Z,5.10
2022-11-23T16:29:30.048Z,6.07
2022-11-23T16:34:27.154Z,6.95
2022-11-23T16:36:55.763Z,8.30
2022-11-23T16:39:24.183Z,6.28
2022-11-23T16:41:52.123Z,6.57
2022-11-23T16:44:18.973Z,6.30
2022-11-23T16:46:47.488Z,7.35
2022-11-23T16:49:18.372Z,6.22
2022-11-23T16:54:14.172Z,9.57
2022-11-23T16:56:43.209Z,12.68
2022-11-23T16:59:16.505Z,9.43
2022-11-23T17:01:45.734Z,10.80
2022-11-23T17:04:14.941Z,9.38
2022-11-23T17:06:42.753Z,8.18
2022-11-23T17:09:10.040Z,8.50
2022-11-23T17:11:40.634Z,7.70
2022-11-23T17:14:18.511Z,9.40
2022-11-23T17:16:45.746Z,9.40
2022-11-23T17:19:18.357Z,7.43
2022-11-23T17:21:48.654Z,8.50
2022-11-23T17:24:15.163Z,9.93
2022-11-23T17:26:49.174Z,8.77
2022-11-23T17:29:19.469Z,8.55
2022-11-23T17:31:47.103Z,8.25
2022-11-23T17:34:14.530Z,9.00
2022-11-23T17:36:46.441Z,8.10
2022-11-23T17:39:20.871Z,8.93
2022-11-23T17:41:48.230Z,9.82
2022-11-23T17:44:15.731Z,9.10
2022-11-23T17:46:42.874Z,8.02
2022-11-23T17:49:12.740Z,9.02
2022-11-23T17:51:39.245Z,10.67
2022-11-23T17:54:05.707Z,10.57
2022-11-23T17:56:32.145Z,12.70
2022-11-23T17:58:58.763Z,12.10
2022-11-23T18:01:25.512Z,12.18
2022-11-23T18:03:52.576Z,11.00
2022-11-23T18:06:24.021Z,11.93
2022-11-23T18:08:51.997Z,11.55
2022-11-23T18:11:19.774Z,12.45
2022-11-23T18:13:50.589Z,11.48
2022-11-23T18:18:45.003Z,11.10
2022-11-23T18:21:14.123Z,12.18
2022-11-23T18:23:42.278Z,12.10
2022-11-23T18:26:25.790Z,12.60
2022-11-23T18:28:52.765Z,13.18
2022-11-23T18:31:19.813Z,13.85
2022-11-23T18:33:46.442Z,14.85
2022-11-23T18:36:16.120Z,13.85
2022-11-23T18:38:46.403Z,12.68
2022-11-23T18:41:16.131Z,14.90
2022-11-23T18:43:43.697Z,14.75
2022-11-23T18:46:11.922Z,13.95
2022-11-23T18:48:38.850Z,14.10
2022-11-23T18:51:05.736Z,14.07
2022-11-23T18:53:32.666Z,16.10
2022-11-23T18:56:06.744Z,15.18
2022-11-23T18:58:34.552Z,14.18
2022-11-23T19:01:27.637Z,14.25
2022-11-23T19:03:54.204Z,14.40
2022-11-23T19:06:22.622Z,15.07
2022-11-23T19:08:54.134Z,14.45
2022-11-23T19:11:23.027Z,14.82
2022-11-23T19:13:51.485Z,14.75
2022-11-23T19:16:23.815Z,14.75
2022-11-23T19:18:58.087Z,14.60
2022-11-23T19:21:26.860Z,15.70
2022-11-23T19:23:54.928Z,17.38
2022-11-23T19:26:22.245Z,16.45
2022-11-23T19:28:49.637Z,15.90
2022-11-23T19:31:21.603Z,15.57
2022-11-23T19:33:49.321Z,16.98
2022-11-23T19:36:18.431Z,15.38
2022-11-23T19:38:45.733Z,15.98
2022-11-23T19:41:12.294Z,15.23
2022-11-23T19:43:39.013Z,16.25
2022-11-23T19:46:07.410Z,16.48
2022-11-23T19:48:34.676Z,16.85
2022-11-23T19:51:05.821Z,15.48
2022-11-23T19:53:37.277Z,17.27
2022-11-23T19:56:11.162Z,15.77
2022-11-23T19:58:38.060Z,16.02
2022-11-23T20:01:07.316Z,16.00
2022-11-23T20:03:34.536Z,15.77
2022-11-23T20:06:03.040Z,15.25
2022-11-23T20:08:29.566Z,16.38
2022-11-23T20:10:56.666Z,14.88
2022-11-23T20:13:23.757Z,17.45
2022-11-23T20:15:50.619Z,16.20
2022-11-23T20:18:18.111Z,16.38
2022-11-23T20:20:47.185Z,17.98
2022-11-23T20:23:14.824Z,19.33
2022-11-23T20:25:42.382Z,17.38
2022-11-23T20:28:13.245Z,18.40
2022-11-23T20:30:42.470Z,19.33
2022-11-23T20:33:10.003Z,18.70
2022-11-23T20:35:36.586Z,17.83
2022-11-23T20:38:03.724Z,18.92
2022-11-23T20:40:30.694Z,18.20
2022-11-23T20:42:58.201Z,19.55
2022-11-23T20:45:25.786Z,19.45
2022-11-23T20:47:55.111Z,18.65
2022-11-23T20:50:26.916Z,20.73
2022-11-23T20:53:03.987Z,20.17
2022-11-23T20:55:31.880Z,21.55
2022-11-23T20:57:58.302Z,21.50
2022-11-23T21:00:25.304Z,23.08
2022-11-23T21:02:53.339Z,21.38
2022-11-23T21:05:20.590Z,19.38
2022-11-23T21:07:48.239Z,21.58
2022-11-23T21:10:34.306Z,21.10
2022-11-23T21:13:19.944Z,20.42
2022-11-23T21:15:46.555Z,21.15
2022-11-23T21:18:13.244Z,21.02
2022-11-23T21:20:40.875Z,20.27
2022-11-23T21:23:07.364Z,20.17
2022-11-23T21:25:35.515Z,19.50
2022-11-23T21:28:03.209Z,21.25
2022-11-23T21:30:30.750Z,20.80
2022-11-23T21:32:57.449Z,21.67
2022-11-23T21:35:24.022Z,21.25
2022-11-23T21:37:50.455Z,22.25
2022-11-23T21:40:16.905Z,22.40
2022-11-23T21:42:44.605Z,22.48
2022-11-23T21:45:11.105Z,21.10
2022-11-23T21:47:37.516Z,21.30
2022-11-23T21:50:04.506Z,21.67
2022-11-23T21:52:30.917Z,21.25
2022-11-23T21:54:57.381Z,20.88
2022-11-23T21:57:23.820Z,22.25
2022-11-23T21:59:50.309Z,21.60
2022-11-23T22:02:16.837Z,20.60
2022-11-23T22:04:43.322Z,22.55
2022-11-23T22:07:09.836Z,22.70
2022-11-23T22:09:37.956Z,21.95
2022-11-23T22:12:04.595Z,20.90
2022-11-23T22:14:31.256Z,21.25
2022-11-23T22:16:58.185Z,23.30
2022-11-23T22:19:24.721Z,20.80
2022-11-23T22:21:51.292Z,22.50
2022-11-23T22:24:19.481Z,21.88
2022-11-23T22:26:46.278Z,22.42
2022-11-23T22:29:13.051Z,20.75
2022-11-23T22:31:40.076Z,20.80
2022-11-23T22:34:09.930Z,21.33
2022-11-23T22:36:36.485Z,21.58
2022-11-23T22:39:05.698Z,20.38
2022-11-23T22:41:37.330Z,21.23
2022-11-23T22:44:09.290Z,20.33
2022-11-23T22:46:39.820Z,19.38
2022-11-23T22:49:06.495Z,19.08
2022-11-23T22:51:33.319Z,18.13
2022-11-23T22:54:01.285Z,20.00
2022-11-23T22:56:29.692Z,17.85
2022-11-23T22:58:56.504Z,17.25
2022-11-23T23:01:26.068Z,17.92
2022-11-23T23:03:58.122Z,16.95
2022-11-23T23:06:27.498Z,17.15
2022-11-23T23:08:55.876Z,15.55
2022-11-23T23:11:23.257Z,15.52
2022-11-23T23:13:49.860Z,15.60
2022-11-23T23:16:16.406Z,14.75
2022-11-23T23:18:43.830Z,14.75
2022-11-23T23:21:14.087Z,15.05
2022-11-23T23:23:42.928Z,14.05
2022-11-23T23:26:10.916Z,12.75
2022-11-23T23:28:37.736Z,14.10
2022-11-23T23:31:07.554Z,14.30
2022-11-23T23:33:34.499Z,13.55
2022-11-23T23:36:09.559Z,12.88
2022-11-23T23:38:37.138Z,12.82
2022-11-23T23:41:05.073Z,12.07
2022-11-23T23:43:32.082Z,12.20
2022-11-23T23:46:00.697Z,11.77
2022-11-23T23:48:33.658Z,12.13
2022-11-23T23:51:16.672Z,10.38
2022-11-23T23:53:44.509Z,10.65
2022-11-23T23:56:34.547Z,11.18
2022-11-23T23:59:01.024Z,11.03
